Hlavní strana
METAR-TAF:

METAR-TAF

Letiště :

Ulánbátar, Mongolsko

Čingischánovo mezinárodní letiště

zeměpisná šířka: 47-55N, zeměpisná délka: 106-52E, výška: 1306 m

Aktuální stav počasí

Zpráva byla vytvořena před 22 minutami, v 07:00 UTC
vítr z různých směrů 2 kt
Teplota -21°C
Vlhkost vzduchu 70%
Tlak 1015 hPa
Viditelnost: 5000 m
kouř

METAR: ZMUB 200700Z VRB01MPS 5000NW FU NSC M21/M25 Q1015 NOSIG RMK QFE654.0 65 NW MO

Čas: 15:22 (07:22 UTC)

Předpověď počasí

Zpráva byla vytvořena před 2 hodinami a 32 minutami, v 04:50 UTC
Předpověď platná od 20 v 06 UTC do 21 v 12 UTC
vítr z různých směrů 4 kt
Viditelnost: 6000 m
Polojasno ve výšce 10000 ft
Změna
od 21 v 00 UTC do 21 v 02 UTC
Viditelnost: 3000 m
kouř
Změna
od 21 v 05 UTC do 21 v 07 UTC
Viditelnost: 6000 m

TAF: ZMUB 200450Z 2006/2112 VRB02MPS 6000 SCT100 TXM20/2007Z TNM36/2022Z BECMG 2100/2102 3000 FU BECMG 2105/2107 6000

Stav a předpovědi počasí z více než 4 000 letišť (zprávy METAR a TAF).

Červené a žluté tečky na mapě představují dostupné meteorologické stanice.

Když kurzor umístíte na tečku, zobrazí se název stanice.

Pak kliknutím zobrazíte stav a předpověď počasí.

Chcete-li změnit mapu, kliknutím na zelené tlačítko se znaménkem +mapu přiblížíte, kliknutím na zelené tlačítko se znaménkem – mapu oddálíte a kliknutím na zelené šipky přejdete na sousední mapy.


METAR-TAF: